Time,TemperatureF,DewpointF,PressureIn,WindDirection,WindDirectionDegrees,WindSpeedMPH,WindSpeedGustMPH,Humidity,HourlyPrecipIn,Conditions,Clouds,dailyrainin,SoftwareType,DateUTC
2013-01-04 00:03:00,34.2,1.9,-100.00,SW,228,2.0,5.0,25,0.00,,,0.00,meteohub,2013-01-04 08:03:00,
2013-01-04 00:08:00,34.0,2.7,-100.00,SW,228,1.0,5.0,26,0.00,,,0.00,meteohub,2013-01-04 08:08:00,
2013-01-04 00:13:00,33.8,2.5,-100.00,SW,228,0.0,4.0,26,0.00,,,0.00,meteohub,2013-01-04 08:13:00,
2013-01-04 00:18:00,33.6,3.2,-100.00,SW,228,0.0,4.0,27,0.00,,,0.00,meteohub,2013-01-04 08:18:00,
2013-01-04 00:23:00,33.4,3.0,-100.00,SW,228,0.0,3.0,27,0.00,,,0.00,meteohub,2013-01-04 08:23:00,
2013-01-04 00:28:00,33.4,3.7,-100.00,SW,228,0.0,1.0,28,0.00,,,0.00,meteohub,2013-01-04 08:28:00,
2013-01-04 00:33:00,33.4,3.0,-100.00,SW,228,0.0,0.0,27,0.00,,,0.00,meteohub,2013-01-04 08:33:00,
2013-01-04 00:38:00,33.3,3.7,-100.00,SW,228,0.0,0.0,28,0.00,,,0.00,meteohub,2013-01-04 08:38:00,
2013-01-04 00:43:00,33.3,3.7,-100.00,SW,228,0.0,0.0,28,0.00,,,0.00,meteohub,2013-01-04 08:43:00,
2013-01-04 00:48:00,33.3,2.8,-100.00,SW,228,1.0,0.0,27,0.00,,,0.00,meteohub,2013-01-04 08:48:00,
2013-01-04 00:53:00,33.1,2.7,-100.00,SW,228,2.0,2.0,27,0.00,,,0.00,meteohub,2013-01-04 08:53:00,
2013-01-04 00:58:00,33.1,4.3,-100.00,SW,228,0.0,2.0,29,0.00,,,0.00,meteohub,2013-01-04 08:58:00,
2013-01-04 01:03:00,32.7,3.9,-100.00,SW,228,0.0,2.0,29,0.00,,,0.00,meteohub,2013-01-04 09:03:00,
2013-01-04 01:08:00,32.5,3.7,-100.00,SW,228,0.0,2.0,29,0.00,,,0.00,meteohub,2013-01-04 09:08:00,
2013-01-04 01:13:00,32.5,3.7,-100.00,SW,228,0.0,1.0,29,0.00,,,0.00,meteohub,2013-01-04 09:13:00,
2013-01-04 01:18:00,32.5,3.7,-100.00,SW,228,0.0,1.0,29,0.00,,,0.00,meteohub,2013-01-04 09:18:00,
2013-01-04 01:23:00,32.5,3.0,-100.00,SW,228,0.0,1.0,28,0.00,,,0.00,meteohub,2013-01-04 09:23:00,
2013-01-04 01:28:00,32.7,2.5,-100.00,SW,228,0.0,1.0,27,0.00,,,0.00,meteohub,2013-01-04 09:28:00,
2013-01-04 01:34:00,32.7,2.5,-100.00,SW,228,0.0,1.0,27,0.00,,,0.00,meteohub,2013-01-04 09:34:00,
2013-01-04 01:39:00,32.7,2.5,-100.00,SW,228,0.0,0.0,27,0.00,,,0.00,meteohub,2013-01-04 09:39:00,
2013-01-04 01:44:00,32.7,2.5,-100.00,SW,228,0.0,0.0,27,0.00,,,0.00,meteohub,2013-01-04 09:44:00,
2013-01-04 01:49:00,32.5,2.3,-100.00,SW,228,0.0,0.0,27,0.00,,,0.00,meteohub,2013-01-04 09:49:00,
2013-01-04 01:54:00,32.5,3.0,-100.00,SW,228,0.0,0.0,28,0.00,,,0.00,meteohub,2013-01-04 09:54:00,
2013-01-04 01:59:00,32.5,3.7,-100.00,SW,228,0.0,0.0,29,0.00,,,0.00,meteohub,2013-01-04 09:59:00,
2013-01-04 02:04:00,32.4,2.1,-100.00,SW,228,0.0,0.0,27,0.00,,,0.00,meteohub,2013-01-04 10:04:00,
2013-01-04 02:09:00,31.8,2.5,-100.00,SW,228,0.0,0.0,28,0.00,,,0.00,meteohub,2013-01-04 10:09:00,
2013-01-04 02:14:00,31.3,1.2,-100.00,West,275,6.0,6.0,27,0.00,,,0.00,meteohub,2013-01-04 10:14:00,
2013-01-04 02:19:00,30.4,0.3,-100.00,West,279,4.0,6.0,27,0.00,,,0.00,meteohub,2013-01-04 10:19:00,
2013-01-04 02:24:00,30.2,1.0,-100.00,West,280,4.0,6.0,28,0.00,,,0.00,meteohub,2013-01-04 10:24:00,
2013-01-04 02:29:00,30.4,1.2,-100.00,West,280,3.0,6.0,28,0.00,,,0.00,meteohub,2013-01-04 10:29:00,
2013-01-04 02:34:00,30.6,0.5,-100.00,West,277,4.0,6.0,27,0.00,,,0.00,meteohub,2013-01-04 10:34:00,
2013-01-04 02:39:00,30.6,1.4,-100.00,West,268,4.0,6.0,28,0.00,,,0.00,meteohub,2013-01-04 10:39:00,
2013-01-04 02:44:00,30.7,1.4,-100.00,West,265,2.0,6.0,28,0.00,,,0.00,meteohub,2013-01-04 10:44:00,
2013-01-04 02:49:00,30.9,1.6,-100.00,West,261,1.0,6.0,28,0.00,,,0.00,meteohub,2013-01-04 10:49:00,
2013-01-04 02:54:00,31.3,2.7,-100.00,West,259,1.0,6.0,29,0.00,,,0.00,meteohub,2013-01-04 10:54:00,
2013-01-04 02:59:00,31.5,2.1,-100.00,West,259,1.0,5.0,28,0.00,,,0.00,meteohub,2013-01-04 10:59:00,
2013-01-04 03:04:00,31.5,2.8,-100.00,West,259,2.0,5.0,29,0.00,,,0.00,meteohub,2013-01-04 11:04:00,
2013-01-04 03:09:00,30.7,0.7,-100.00,West,259,1.0,3.0,27,0.00,,,0.00,meteohub,2013-01-04 11:09:00,
2013-01-04 03:14:00,30.6,2.1,-100.00,West,259,2.0,3.0,29,0.00,,,0.00,meteohub,2013-01-04 11:14:00,
2013-01-04 03:19:00,30.9,1.6,-100.00,West,259,3.0,3.0,28,0.00,,,0.00,meteohub,2013-01-04 11:19:00,
2013-01-04 03:24:00,30.7,1.4,-100.00,West,259,2.0,3.0,28,0.00,,,0.00,meteohub,2013-01-04 11:24:00,
2013-01-04 03:29:00,30.9,0.9,-100.00,West,259,2.0,4.0,27,0.00,,,0.00,meteohub,2013-01-04 11:29:00,
2013-01-04 03:34:00,30.9,0.9,-100.00,West,259,4.0,4.0,27,0.00,,,0.00,meteohub,2013-01-04 11:34:00,
2013-01-04 03:39:00,30.7,0.7,-100.00,West,259,2.0,4.0,27,0.00,,,0.00,meteohub,2013-01-04 11:39:00,
2013-01-04 03:44:00,30.7,0.7,-100.00,West,259,3.0,4.0,27,0.00,,,0.00,meteohub,2013-01-04 11:44:00,
2013-01-04 03:49:00,30.7,1.4,-100.00,West,259,0.0,4.0,28,0.00,,,0.00,meteohub,2013-01-04 11:49:00,
2013-01-04 03:54:00,30.7,1.4,-100.00,West,259,2.0,4.0,28,0.00,,,0.00,meteohub,2013-01-04 11:54:00,
2013-01-04 03:59:00,30.6,2.8,-100.00,West,259,1.0,3.0,30,0.00,,,0.00,meteohub,2013-01-04 11:59:00,
2013-01-04 04:04:00,30.6,2.8,-100.00,West,259,2.0,3.0,30,0.00,,,0.00,meteohub,2013-01-04 12:04:00,
2013-01-04 04:09:00,30.6,2.8,-100.00,WSW,256,3.0,4.0,30,0.00,,,0.00,meteohub,2013-01-04 12:09:00,
2013-01-04 04:15:00,30.6,3.6,-100.00,WSW,248,4.0,4.0,31,0.00,,,0.00,meteohub,2013-01-04 12:15:00,
2013-01-04 04:20:00,30.9,3.7,-100.00,SW,236,3.0,4.0,31,0.00,,,0.00,meteohub,2013-01-04 12:20:00,
2013-01-04 04:25:00,30.9,3.2,-100.00,SW,236,2.0,5.0,30,0.00,,,0.00,meteohub,2013-01-04 12:25:00,
2013-01-04 04:30:00,30.9,3.2,-100.00,SW,236,2.0,5.0,30,0.00,,,0.00,meteohub,2013-01-04 12:30:00,
2013-01-04 04:35:00,30.7,3.0,-100.00,SW,236,0.0,4.0,30,0.00,,,0.00,meteohub,2013-01-04 12:35:00,
2013-01-04 04:40:00,30.6,2.8,-100.00,SW,236,0.0,3.0,30,0.00,,,0.00,meteohub,2013-01-04 12:40:00,
2013-01-04 04:45:00,30.4,3.4,-100.00,SW,236,0.0,2.0,31,0.00,,,0.00,meteohub,2013-01-04 12:45:00,
2013-01-04 04:50:00,29.7,1.9,-100.00,SW,236,1.0,3.0,30,0.00,,,0.00,meteohub,2013-01-04 12:50:00,
2013-01-04 04:55:00,29.3,2.5,-100.00,SW,236,1.0,3.0,31,0.00,,,0.00,meteohub,2013-01-04 12:55:00,
2013-01-04 05:00:00,29.5,2.5,-100.00,SW,236,1.0,3.0,31,0.00,,,0.00,meteohub,2013-01-04 13:00:00,
2013-01-04 05:05:00,29.7,1.9,-100.00,SW,236,3.0,3.0,30,0.00,,,0.00,meteohub,2013-01-04 13:05:00,
2013-01-04 05:10:00,29.5,1.9,-100.00,SW,236,2.0,3.0,30,0.00,,,0.00,meteohub,2013-01-04 13:10:00,
2013-01-04 05:15:00,29.5,1.9,-100.00,SW,236,0.0,3.0,30,0.00,,,0.00,meteohub,2013-01-04 13:15:00,
2013-01-04 05:20:00,29.7,2.7,-100.00,SW,236,0.0,3.0,31,0.00,,,0.00,meteohub,2013-01-04 13:20:00,
2013-01-04 05:25:00,29.8,2.1,-100.00,SW,236,0.0,3.0,30,0.00,,,0.00,meteohub,2013-01-04 13:25:00,
2013-01-04 05:30:00,29.8,2.1,-100.00,SW,236,0.0,2.0,30,0.00,,,0.00,meteohub,2013-01-04 13:30:00,
2013-01-04 05:35:00,29.8,2.8,-100.00,SW,236,0.0,1.0,31,0.00,,,0.00,meteohub,2013-01-04 13:35:00,
2013-01-04 05:40:00,29.8,2.8,-100.00,SW,236,0.0,0.0,31,0.00,,,0.00,meteohub,2013-01-04 13:40:00,
2013-01-04 05:45:00,29.8,2.8,-100.00,SW,236,1.0,2.0,31,0.00,,,0.00,meteohub,2013-01-04 13:45:00,
2013-01-04 05:50:00,30.0,3.0,-100.00,SW,236,0.0,2.0,31,0.00,,,0.00,meteohub,2013-01-04 13:50:00,
2013-01-04 05:55:00,29.8,2.8,-100.00,SW,236,0.0,2.0,31,0.00,,,0.00,meteohub,2013-01-04 13:55:00,
2013-01-04 06:00:00,30.0,3.0,-100.00,SW,236,0.0,2.0,31,0.00,,,0.00,meteohub,2013-01-04 14:00:00,
2013-01-04 06:05:00,30.0,3.7,-100.00,SW,236,0.0,0.0,32,0.00,,,0.00,meteohub,2013-01-04 14:05:00,
2013-01-04 06:10:00,29.8,3.6,-100.00,SW,236,0.0,0.0,32,0.00,,,0.00,meteohub,2013-01-04 14:10:00,
2013-01-04 06:15:00,29.8,3.6,-100.00,SW,236,0.0,0.0,32,0.00,,,0.00,meteohub,2013-01-04 14:15:00,
2013-01-04 06:20:00,29.8,3.6,-100.00,SW,236,0.0,0.0,32,0.00,,,0.00,meteohub,2013-01-04 14:20:00,
2013-01-04 06:25:00,29.8,3.6,-100.00,SW,236,0.0,0.0,32,0.00,,,0.00,meteohub,2013-01-04 14:25:00,
2013-01-04 06:30:00,29.7,4.1,-100.00,SW,236,0.0,0.0,33,0.00,,,0.00,meteohub,2013-01-04 14:30:00,
2013-01-04 06:36:00,29.5,4.6,-100.00,SW,236,0.0,0.0,34,0.00,,,0.00,meteohub,2013-01-04 14:36:00,
2013-01-04 06:41:00,29.3,3.7,-100.00,SW,236,0.0,0.0,33,0.00,,,0.00,meteohub,2013-01-04 14:41:00,
2013-01-04 06:46:00,29.1,4.3,-100.00,SW,236,2.0,0.0,34,0.00,,,0.00,meteohub,2013-01-04 14:46:00,
2013-01-04 06:51:00,28.9,4.1,-100.00,SW,236,2.0,2.0,34,0.00,,,0.00,meteohub,2013-01-04 14:51:00,
2013-01-04 06:56:00,28.8,4.5,-100.00,SW,236,2.0,2.0,35,0.00,,,0.00,meteohub,2013-01-04 14:56:00,
2013-01-04 07:01:00,28.6,3.7,-100.00,SW,236,3.0,4.0,34,0.00,,,0.00,meteohub,2013-01-04 15:01:00,
2013-01-04 07:06:00,28.4,3.6,-100.00,WSW,238,3.0,4.0,34,0.00,,,0.00,meteohub,2013-01-04 15:06:00,
2013-01-04 07:11:00,28.0,3.9,-100.00,WSW,242,2.0,4.0,35,0.00,,,0.00,meteohub,2013-01-04 15:11:00,
2013-01-04 07:16:00,28.0,3.9,-100.00,WSW,242,1.0,4.0,35,0.00,,,0.00,meteohub,2013-01-04 15:16:00,
2013-01-04 07:21:00,28.0,4.5,-100.00,WSW,242,0.0,4.0,36,0.00,,,0.00,meteohub,2013-01-04 15:21:00,
2013-01-04 07:26:00,28.6,5.0,-100.00,WSW,242,0.0,3.0,36,0.00,,,0.00,meteohub,2013-01-04 15:26:00,
2013-01-04 07:31:00,28.6,3.7,-100.00,WSW,242,0.0,2.0,34,0.00,,,0.00,meteohub,2013-01-04 15:31:00,
2013-01-04 07:36:00,28.6,3.7,-100.00,WSW,242,0.0,0.0,34,0.00,,,0.00,meteohub,2013-01-04 15:36:00,
2013-01-04 07:41:00,28.8,3.9,-100.00,WSW,242,1.0,2.0,34,0.00,,,0.00,meteohub,2013-01-04 15:41:00,
2013-01-04 07:46:00,28.8,3.2,-100.00,WSW,242,2.0,2.0,33,0.00,,,0.00,meteohub,2013-01-04 15:46:00,
2013-01-04 07:51:00,29.1,4.8,-100.00,WSW,242,3.0,3.0,35,0.00,,,0.00,meteohub,2013-01-04 15:51:00,
2013-01-04 07:56:00,29.5,4.6,-100.00,WSW,242,2.0,4.0,34,0.00,,,0.00,meteohub,2013-01-04 15:56:00,
2013-01-04 08:01:00,29.8,4.8,-100.00,WSW,242,0.0,4.0,34,0.00,,,0.00,meteohub,2013-01-04 16:01:00,
2013-01-04 08:06:00,30.4,5.4,-100.00,WSW,242,1.0,4.0,34,0.00,,,0.00,meteohub,2013-01-04 16:06:00,
2013-01-04 08:11:00,31.1,5.4,-100.00,WSW,242,0.0,3.0,33,0.00,,,0.00,meteohub,2013-01-04 16:11:00,
2013-01-04 08:16:00,31.6,6.4,-100.00,WSW,242,1.0,2.0,34,0.00,,,0.00,meteohub,2013-01-04 16:16:00,
2013-01-04 08:21:00,32.4,5.7,-100.00,WSW,238,0.0,2.0,32,0.00,,,0.00,meteohub,2013-01-04 16:21:00,
2013-01-04 08:26:00,32.5,5.9,-100.00,WSW,238,0.0,2.0,32,0.00,,,0.00,meteohub,2013-01-04 16:26:00,
2013-01-04 08:31:00,33.1,6.4,-100.00,WSW,238,0.0,2.0,32,0.00,,,0.00,meteohub,2013-01-04 16:31:00,
2013-01-04 08:36:00,33.4,6.1,-100.00,WSW,238,0.0,0.0,31,0.00,,,0.00,meteohub,2013-01-04 16:36:00,
2013-01-04 08:41:00,34.0,6.4,-100.00,WSW,238,0.0,0.0,31,0.00,,,0.00,meteohub,2013-01-04 16:41:00,
2013-01-04 08:46:00,34.5,6.3,-100.00,WSW,238,0.0,1.0,30,0.00,,,0.00,meteohub,2013-01-04 16:46:00,
2013-01-04 08:51:00,35.2,7.0,-100.00,WSW,238,0.0,1.0,30,0.00,,,0.00,meteohub,2013-01-04 16:51:00,
2013-01-04 08:56:00,35.8,6.6,-100.00,WSW,238,1.0,1.0,29,0.00,,,0.00,meteohub,2013-01-04 16:56:00,
2013-01-04 09:01:00,36.0,6.8,-100.00,WSW,238,0.0,1.0,29,0.00,,,0.00,meteohub,2013-01-04 17:01:00,
2013-01-04 09:06:00,36.5,6.4,-100.00,WSW,238,0.0,1.0,28,0.00,,,0.00,meteohub,2013-01-04 17:06:00,
2013-01-04 09:11:00,37.0,7.0,-100.00,WSW,238,2.0,2.0,28,0.00,,,0.00,meteohub,2013-01-04 17:11:00,
2013-01-04 09:16:00,37.9,7.0,-100.00,WSW,238,0.0,2.0,27,0.00,,,0.00,meteohub,2013-01-04 17:16:00,
2013-01-04 09:21:00,38.7,7.5,-100.00,WSW,238,0.0,2.0,27,0.00,,,0.00,meteohub,2013-01-04 17:21:00,
2013-01-04 09:26:00,38.8,7.7,-100.00,WSW,238,0.0,2.0,27,0.00,,,0.00,meteohub,2013-01-04 17:26:00,
2013-01-04 09:31:00,39.2,8.1,-100.00,WSW,238,0.0,1.0,27,0.00,,,0.00,meteohub,2013-01-04 17:31:00,
2013-01-04 09:36:00,39.7,7.7,-100.00,WSW,238,0.0,1.0,26,0.00,,,0.00,meteohub,2013-01-04 17:36:00,
2013-01-04 09:41:00,40.1,8.8,-100.00,WSW,238,1.0,1.0,27,0.00,,,0.00,meteohub,2013-01-04 17:41:00,
2013-01-04 09:46:00,40.5,8.2,-100.00,WSW,238,0.0,1.0,26,0.00,,,0.00,meteohub,2013-01-04 17:46:00,
2013-01-04 09:51:00,40.8,8.6,-100.00,WSW,238,0.0,1.0,26,0.00,,,0.00,meteohub,2013-01-04 17:51:00,
2013-01-04 09:56:00,41.5,9.1,-100.00,WSW,238,0.0,1.0,26,0.00,,,0.00,meteohub,2013-01-04 17:56:00,
2013-01-04 10:01:00,42.1,9.7,-100.00,WSW,238,1.0,1.0,26,0.00,,,0.00,meteohub,2013-01-04 18:01:00,
2013-01-04 10:06:00,42.8,9.3,-100.00,WSW,238,0.0,2.0,25,0.00,,,0.00,meteohub,2013-01-04 18:06:00,
2013-01-04 10:11:00,43.2,9.7,-100.00,WSW,238,0.0,2.0,25,0.00,,,0.00,meteohub,2013-01-04 18:11:00,
2013-01-04 10:16:00,43.5,10.9,-100.00,WSW,238,0.0,2.0,26,0.00,,,0.00,meteohub,2013-01-04 18:16:00,
2013-01-04 10:21:00,44.1,11.3,-100.00,WSW,238,0.0,3.0,26,0.00,,,0.00,meteohub,2013-01-04 18:21:00,
2013-01-04 10:26:00,44.6,10.9,-100.00,WSW,238,1.0,3.0,25,0.00,,,0.00,meteohub,2013-01-04 18:26:00,
2013-01-04 10:31:00,44.8,11.1,-100.00,WSW,238,0.0,3.0,25,0.00,,,0.00,meteohub,2013-01-04 18:31:00,
2013-01-04 10:36:00,45.1,10.4,-100.00,WSW,238,0.0,3.0,24,0.00,,,0.00,meteohub,2013-01-04 18:36:00,
2013-01-04 10:41:00,45.3,10.6,-100.00,WSW,238,3.0,3.0,24,0.00,,,0.00,meteohub,2013-01-04 18:41:00,
2013-01-04 10:46:00,45.9,11.1,-100.00,WSW,238,1.0,4.0,24,0.00,,,0.00,meteohub,2013-01-04 18:46:00,
2013-01-04 10:51:00,46.2,11.5,-100.00,WSW,238,1.0,4.0,24,0.00,,,0.00,meteohub,2013-01-04 18:51:00,
2013-01-04 10:56:00,46.6,10.8,-100.00,WSW,238,3.0,4.0,23,0.00,,,0.00,meteohub,2013-01-04 18:56:00,
2013-01-04 11:01:00,47.1,11.1,-100.00,WSW,238,1.0,4.0,23,0.00,,,0.00,meteohub,2013-01-04 19:01:00,
2013-01-04 11:06:00,47.3,10.4,-100.00,WSW,238,3.0,4.0,22,0.00,,,0.00,meteohub,2013-01-04 19:06:00,
2013-01-04 11:11:00,48.0,10.9,-100.00,WSW,238,3.0,4.0,22,0.00,,,0.00,meteohub,2013-01-04 19:11:00,
2013-01-04 11:16:00,48.4,11.3,-100.00,WSW,238,0.0,4.0,22,0.00,,,0.00,meteohub,2013-01-04 19:16:00,
2013-01-04 11:21:00,48.7,10.6,-100.00,WSW,238,0.0,4.0,21,0.00,,,0.00,meteohub,2013-01-04 19:21:00,
2013-01-04 11:27:00,48.9,10.8,-100.00,WSW,238,2.0,4.0,21,0.00,,,0.00,meteohub,2013-01-04 19:27:00,
2013-01-04 11:32:00,49.3,10.9,-100.00,WSW,238,1.0,4.0,21,0.00,,,0.00,meteohub,2013-01-04 19:32:00,
2013-01-04 11:37:00,49.6,11.3,-100.00,WSW,238,2.0,4.0,21,0.00,,,0.00,meteohub,2013-01-04 19:37:00,
2013-01-04 11:42:00,49.8,11.5,-100.00,WSW,238,2.0,4.0,21,0.00,,,0.00,meteohub,2013-01-04 19:42:00,
2013-01-04 11:47:00,50.2,10.6,-100.00,WSW,238,0.0,4.0,20,0.00,,,0.00,meteohub,2013-01-04 19:47:00,
2013-01-04 11:52:00,50.4,10.8,-100.00,WSW,238,1.0,4.0,20,0.00,,,0.00,meteohub,2013-01-04 19:52:00,
2013-01-04 11:57:00,50.5,9.9,-100.00,WSW,238,2.0,4.0,19,0.00,,,0.00,meteohub,2013-01-04 19:57:00,
2013-01-04 12:02:00,50.5,10.9,-100.00,WSW,238,1.0,3.0,20,0.00,,,0.00,meteohub,2013-01-04 20:02:00,
2013-01-04 12:07:00,50.7,11.1,-100.00,WSW,238,0.0,3.0,20,0.00,,,0.00,meteohub,2013-01-04 20:07:00,
2013-01-04 12:12:00,51.1,10.2,-100.00,WSW,238,0.0,3.0,19,0.00,,,0.00,meteohub,2013-01-04 20:12:00,
2013-01-04 12:17:00,51.1,10.2,-100.00,WSW,238,0.0,3.0,19,0.00,,,0.00,meteohub,2013-01-04 20:17:00,
2013-01-04 12:22:00,51.4,10.6,-100.00,WSW,238,0.0,3.0,19,0.00,,,0.00,meteohub,2013-01-04 20:22:00,
2013-01-04 12:27:00,52.0,10.9,-100.00,WSW,238,2.0,3.0,19,0.00,,,0.00,meteohub,2013-01-04 20:27:00,
2013-01-04 12:32:00,52.2,11.1,-100.00,WSW,238,0.0,3.0,19,0.00,,,0.00,meteohub,2013-01-04 20:32:00,
2013-01-04 12:37:00,52.0,10.9,-100.00,WSW,238,0.0,3.0,19,0.00,,,0.00,meteohub,2013-01-04 20:37:00,
2013-01-04 12:42:00,52.2,9.9,-100.00,WSW,238,3.0,3.0,18,0.00,,,0.00,meteohub,2013-01-04 20:42:00,
2013-01-04 12:47:00,52.3,11.3,-100.00,WSW,239,3.0,4.0,19,0.00,,,0.00,meteohub,2013-01-04 20:47:00,
2013-01-04 12:52:00,52.5,10.2,-100.00,WSW,238,0.0,4.0,18,0.00,,,0.00,meteohub,2013-01-04 20:52:00,
2013-01-04 12:57:00,52.9,10.6,-100.00,WSW,238,2.0,4.0,18,0.00,,,0.00,meteohub,2013-01-04 20:57:00,
2013-01-04 13:02:00,52.9,10.6,-100.00,NW,309,4.0,4.0,18,0.00,,,0.00,meteohub,2013-01-04 21:02:00,
2013-01-04 13:07:00,53.1,10.6,-100.00,NW,309,1.0,6.0,18,0.00,,,0.00,meteohub,2013-01-04 21:07:00,
2013-01-04 13:12:00,53.1,10.6,-100.00,North,5,5.0,6.0,18,0.00,,,0.00,meteohub,2013-01-04 21:12:00,
2013-01-04 13:17:00,53.2,9.5,-100.00,NNE,21,2.0,6.0,17,0.00,,,0.00,meteohub,2013-01-04 21:17:00,
2013-01-04 13:22:00,53.4,9.7,-100.00,NNE,22,2.0,6.0,17,0.00,,,0.00,meteohub,2013-01-04 21:22:00,
2013-01-04 13:27:00,53.6,9.9,-100.00,NNE,26,4.0,6.0,17,0.00,,,0.00,meteohub,2013-01-04 21:27:00,
2013-01-04 13:32:00,53.8,10.0,-100.00,NNE,26,5.0,5.0,17,0.00,,,0.00,meteohub,2013-01-04 21:32:00,
2013-01-04 13:37:00,53.8,10.0,-100.00,NNE,26,1.0,6.0,17,0.00,,,0.00,meteohub,2013-01-04 21:37:00,
2013-01-04 13:42:00,53.8,10.0,-100.00,NNE,27,3.0,6.0,17,0.00,,,0.00,meteohub,2013-01-04 21:42:00,
2013-01-04 13:47:00,54.0,8.8,-100.00,NNE,27,3.0,6.0,16,0.00,,,0.00,meteohub,2013-01-04 21:47:00,
2013-01-04 13:52:00,54.1,9.0,-100.00,ENE,71,5.0,5.0,16,0.00,,,0.00,meteohub,2013-01-04 21:52:00,
2013-01-04 13:57:00,54.3,9.1,-100.00,ENE,71,7.0,9.0,16,0.00,,,0.00,meteohub,2013-01-04 21:57:00,
2013-01-04 14:02:00,54.7,7.9,-100.00,ENE,66,2.0,9.0,15,0.00,,,0.00,meteohub,2013-01-04 22:02:00,
2013-01-04 14:07:00,54.7,7.9,-100.00,ENE,70,2.0,9.0,15,0.00,,,0.00,meteohub,2013-01-04 22:07:00,
2013-01-04 14:12:00,54.9,8.1,-100.00,NE,56,5.0,8.0,15,0.00,,,0.00,meteohub,2013-01-04 22:12:00,
2013-01-04 14:17:00,54.9,8.1,-100.00,ENE,63,2.0,9.0,15,0.00,,,0.00,meteohub,2013-01-04 22:17:00,
2013-01-04 14:22:00,55.0,8.2,-100.00,East,85,5.0,9.0,15,0.00,,,0.00,meteohub,2013-01-04 22:22:00,
2013-01-04 14:27:00,55.0,8.2,-100.00,ENE,71,5.0,9.0,15,0.00,,,0.00,meteohub,2013-01-04 22:27:00,
2013-01-04 14:32:00,54.9,8.1,-100.00,ENE,77,4.0,10.0,15,0.00,,,0.00,meteohub,2013-01-04 22:32:00,
2013-01-04 14:37:00,54.9,8.1,-100.00,East,82,7.0,10.0,15,0.00,,,0.00,meteohub,2013-01-04 22:37:00,
2013-01-04 14:42:00,55.0,6.6,-100.00,ENE,67,5.0,9.0,14,0.00,,,0.00,meteohub,2013-01-04 22:42:00,
2013-01-04 14:47:00,55.0,6.6,-100.00,ENE,78,8.0,9.0,14,0.00,,,0.00,meteohub,2013-01-04 22:47:00,
2013-01-04 14:52:00,54.9,6.6,-100.00,East,86,5.0,10.0,14,0.00,,,0.00,meteohub,2013-01-04 22:52:00,
2013-01-04 14:57:00,54.9,6.6,-100.00,ENE,65,5.0,10.0,14,0.00,,,0.00,meteohub,2013-01-04 22:57:00,
2013-01-04 15:02:00,54.9,5.0,-100.00,NE,53,6.0,10.0,13,0.00,,,0.00,meteohub,2013-01-04 23:02:00,
2013-01-04 15:07:00,55.2,5.2,-100.00,ENE,59,7.0,9.0,13,0.00,,,0.00,meteohub,2013-01-04 23:07:00,
2013-01-04 15:12:00,55.2,6.8,-100.00,ENE,66,7.0,9.0,14,0.00,,,0.00,meteohub,2013-01-04 23:12:00,
2013-01-04 15:18:00,55.0,5.0,-100.00,ENE,74,7.0,9.0,13,0.00,,,0.00,meteohub,2013-01-04 23:18:00,
2013-01-04 15:23:00,55.0,5.0,-100.00,NE,52,6.0,10.0,13,0.00,,,0.00,meteohub,2013-01-04 23:23:00,
2013-01-04 15:28:00,55.0,5.0,-100.00,ENE,57,7.0,10.0,13,0.00,,,0.00,meteohub,2013-01-04 23:28:00,
2013-01-04 15:33:00,55.0,5.0,-100.00,ENE,57,4.0,10.0,13,0.00,,,0.00,meteohub,2013-01-04 23:33:00,
2013-01-04 15:38:00,55.0,5.0,-100.00,East,85,6.0,10.0,13,0.00,,,0.00,meteohub,2013-01-04 23:38:00,
2013-01-04 15:43:00,55.0,5.0,-100.00,East,88,9.0,10.0,13,0.00,,,0.00,meteohub,2013-01-04 23:43:00,
2013-01-04 15:48:00,54.5,4.6,-100.00,ENE,78,10.0,10.0,13,0.00,,,0.00,meteohub,2013-01-04 23:48:00,
2013-01-04 15:53:00,54.1,5.9,-100.00,ENE,57,5.0,10.0,14,0.00,,,0.00,meteohub,2013-01-04 23:53:00,
2013-01-04 15:58:00,54.1,4.3,-100.00,ENE,67,7.0,10.0,13,0.00,,,0.00,meteohub,2013-01-04 23:58:00,
2013-01-04 16:03:00,54.1,4.3,-100.00,ENE,70,8.0,10.0,13,0.00,,,0.00,meteohub,2013-01-05 00:03:00,
2013-01-04 16:08:00,54.1,4.3,-100.00,East,81,7.0,10.0,13,0.00,,,0.00,meteohub,2013-01-05 00:08:00,
2013-01-04 16:13:00,53.8,4.1,-100.00,East,88,7.0,10.0,13,0.00,,,0.00,meteohub,2013-01-05 00:13:00,
2013-01-04 16:18:00,53.4,5.4,-100.00,East,82,6.0,10.0,14,0.00,,,0.00,meteohub,2013-01-05 00:18:00,
2013-01-04 16:23:00,53.4,3.7,-100.00,ENE,74,5.0,9.0,13,0.00,,,0.00,meteohub,2013-01-05 00:23:00,
2013-01-04 16:28:00,53.2,5.2,-100.00,ENE,74,5.0,9.0,14,0.00,,,0.00,meteohub,2013-01-05 00:28:00,
2013-01-04 16:33:00,53.2,5.2,-100.00,ENE,71,2.0,8.0,14,0.00,,,0.00,meteohub,2013-01-05 00:33:00,
2013-01-04 16:38:00,53.1,5.2,-100.00,ENE,71,1.0,8.0,14,0.00,,,0.00,meteohub,2013-01-05 00:38:00,
2013-01-04 16:43:00,53.1,5.2,-100.00,ENE,71,0.0,7.0,14,0.00,,,0.00,meteohub,2013-01-05 00:43:00,
2013-01-04 16:48:00,52.9,5.0,-100.00,ENE,71,1.0,5.0,14,0.00,,,0.00,meteohub,2013-01-05 00:48:00,
2013-01-04 16:53:00,52.7,4.8,-100.00,ENE,71,2.0,4.0,14,0.00,,,0.00,meteohub,2013-01-05 00:53:00,
2013-01-04 16:58:00,52.5,4.6,-100.00,ENE,70,3.0,4.0,14,0.00,,,0.00,meteohub,2013-01-05 00:58:00,
2013-01-04 17:03:00,52.2,4.5,-100.00,ENE,70,3.0,5.0,14,0.00,,,0.00,meteohub,2013-01-05 01:03:00,
2013-01-04 17:08:00,51.8,4.1,-100.00,ENE,70,2.0,5.0,14,0.00,,,0.00,meteohub,2013-01-05 01:08:00,
2013-01-04 17:13:00,51.6,3.9,-100.00,ENE,70,3.0,5.0,14,0.00,,,0.00,meteohub,2013-01-05 01:13:00,
2013-01-04 17:18:00,51.4,5.4,-100.00,ENE,70,1.0,5.0,15,0.00,,,0.00,meteohub,2013-01-05 01:18:00,
2013-01-04 17:23:00,51.3,5.2,-100.00,ENE,70,0.0,4.0,15,0.00,,,0.00,meteohub,2013-01-05 01:23:00,
2013-01-04 17:28:00,51.1,5.0,-100.00,ENE,70,1.0,3.0,15,0.00,,,0.00,meteohub,2013-01-05 01:28:00,
2013-01-04 17:33:00,50.7,4.6,-100.00,ENE,70,1.0,3.0,15,0.00,,,0.00,meteohub,2013-01-05 01:33:00,
2013-01-04 17:38:00,50.5,4.6,-100.00,ENE,70,2.0,3.0,15,0.00,,,0.00,meteohub,2013-01-05 01:38:00,
2013-01-04 17:43:00,50.5,4.6,-100.00,ENE,70,2.0,3.0,15,0.00,,,0.00,meteohub,2013-01-05 01:43:00,
2013-01-04 17:48:00,50.4,5.9,-100.00,ENE,70,1.0,3.0,16,0.00,,,0.00,meteohub,2013-01-05 01:48:00,
2013-01-04 17:53:00,50.2,5.7,-100.00,ENE,70,1.0,3.0,16,0.00,,,0.00,meteohub,2013-01-05 01:53:00,
2013-01-04 17:58:00,49.8,5.4,-100.00,ENE,70,0.0,3.0,16,0.00,,,0.00,meteohub,2013-01-05 01:58:00,
2013-01-04 18:03:00,49.6,5.2,-100.00,ENE,70,0.0,2.0,16,0.00,,,0.00,meteohub,2013-01-05 02:03:00,
2013-01-04 18:08:00,49.3,5.0,-100.00,ENE,70,0.0,2.0,16,0.00,,,0.00,meteohub,2013-01-05 02:08:00,
2013-01-04 18:13:00,48.9,6.1,-100.00,ENE,70,0.0,2.0,17,0.00,,,0.00,meteohub,2013-01-05 02:13:00,
2013-01-04 18:19:00,48.6,7.0,-100.00,ENE,70,1.0,0.0,18,0.00,,,0.00,meteohub,2013-01-05 02:19:00,
2013-01-04 18:24:00,47.8,6.4,-100.00,ENE,70,0.0,0.0,18,0.00,,,0.00,meteohub,2013-01-05 02:24:00,
2013-01-04 18:29:00,47.5,6.1,-100.00,ENE,70,1.0,2.0,18,0.00,,,0.00,meteohub,2013-01-05 02:29:00,
2013-01-04 18:34:00,47.1,7.0,-100.00,ENE,70,1.0,2.0,19,0.00,,,0.00,meteohub,2013-01-05 02:34:00,
2013-01-04 18:39:00,46.9,6.8,-100.00,ENE,70,1.0,2.0,19,0.00,,,0.00,meteohub,2013-01-05 02:39:00,
2013-01-04 18:44:00,46.6,6.4,-100.00,ENE,70,2.0,2.0,19,0.00,,,0.00,meteohub,2013-01-05 02:44:00,
2013-01-04 18:49:00,46.0,7.2,-100.00,ENE,70,1.0,3.0,20,0.00,,,0.00,meteohub,2013-01-05 02:49:00,
2013-01-04 18:54:00,45.7,6.8,-100.00,ENE,70,2.0,3.0,20,0.00,,,0.00,meteohub,2013-01-05 02:54:00,
2013-01-04 18:59:00,45.3,7.7,-100.00,ENE,70,2.0,3.0,21,0.00,,,0.00,meteohub,2013-01-05 02:59:00,
2013-01-04 19:04:00,45.0,6.3,-100.00,ENE,70,3.0,3.0,20,0.00,,,0.00,meteohub,2013-01-05 03:04:00,
2013-01-04 19:10:00,44.4,4.6,-100.00,ENE,70,2.0,5.0,19,0.00,,,0.00,meteohub,2013-01-05 03:10:00,
2013-01-04 19:15:00,43.9,4.3,-100.00,ENE,70,0.0,5.0,19,0.00,,,0.00,meteohub,2013-01-05 03:15:00,
2013-01-04 19:20:00,43.9,4.3,-100.00,ENE,70,0.0,4.0,19,0.00,,,0.00,meteohub,2013-01-05 03:20:00,
2013-01-04 19:25:00,43.5,5.0,-100.00,ENE,70,0.0,2.0,20,0.00,,,0.00,meteohub,2013-01-05 03:25:00,
2013-01-04 19:31:00,43.5,3.9,-100.00,ENE,70,0.0,0.0,19,0.00,,,0.00,meteohub,2013-01-05 03:31:00,
2013-01-04 19:36:00,43.2,3.7,-100.00,ENE,70,0.0,1.0,19,0.00,,,0.00,meteohub,2013-01-05 03:36:00,
2013-01-04 19:41:00,43.0,4.6,-100.00,ENE,70,0.0,1.0,20,0.00,,,0.00,meteohub,2013-01-05 03:41:00,
2013-01-04 19:46:00,42.8,4.5,-100.00,ENE,71,1.0,2.0,20,0.00,,,0.00,meteohub,2013-01-05 03:46:00,
2013-01-04 19:51:00,42.6,4.3,-100.00,East,88,2.0,3.0,20,0.00,,,0.00,meteohub,2013-01-05 03:51:00,
2013-01-04 19:56:00,42.6,4.3,-100.00,East,91,0.0,3.0,20,0.00,,,0.00,meteohub,2013-01-05 03:56:00,
2013-01-04 20:01:00,42.6,4.3,-100.00,East,91,1.0,3.0,20,0.00,,,0.00,meteohub,2013-01-05 04:01:00,
2013-01-04 20:06:00,42.4,5.2,-100.00,East,91,0.0,2.0,21,0.00,,,0.00,meteohub,2013-01-05 04:06:00,
2013-01-04 20:11:00,42.4,4.1,-100.00,East,91,0.0,2.0,20,0.00,,,0.00,meteohub,2013-01-05 04:11:00,
2013-01-04 20:16:00,42.3,4.1,-100.00,East,91,1.0,1.0,20,0.00,,,0.00,meteohub,2013-01-05 04:16:00,
2013-01-04 20:21:00,42.1,5.0,-100.00,East,91,0.0,2.0,21,0.00,,,0.00,meteohub,2013-01-05 04:21:00,
2013-01-04 20:26:00,42.1,5.0,-100.00,East,91,2.0,2.0,21,0.00,,,0.00,meteohub,2013-01-05 04:26:00,
2013-01-04 20:31:00,41.9,4.8,-100.00,East,91,1.0,2.0,21,0.00,,,0.00,meteohub,2013-01-05 04:31:00,
2013-01-04 20:36:00,41.7,4.6,-100.00,East,91,1.0,2.0,21,0.00,,,0.00,meteohub,2013-01-05 04:36:00,
2013-01-04 20:41:00,41.5,4.5,-100.00,East,91,3.0,3.0,21,0.00,,,0.00,meteohub,2013-01-05 04:41:00,
2013-01-04 20:46:00,41.4,4.3,-100.00,East,91,3.0,3.0,21,0.00,,,0.00,meteohub,2013-01-05 04:46:00,
2013-01-04 20:51:00,41.4,5.4,-100.00,East,91,3.0,5.0,22,0.00,,,0.00,meteohub,2013-01-05 04:51:00,
2013-01-04 20:56:00,41.2,5.2,-100.00,East,91,1.0,5.0,22,0.00,,,0.00,meteohub,2013-01-05 04:56:00,
2013-01-04 21:00:00,40.8,3.9,-100.00,East,91,1.0,5.0,21,0.00,,,0.00,meteohub,2013-01-05 05:00:00,
2013-01-04 21:02:00,40.8,4.8,-100.00,East,91,1.0,5.0,22,0.00,,,0.00,meteohub,2013-01-05 05:02:00,
2013-01-04 21:07:00,40.6,3.7,-100.00,East,91,0.0,3.0,21,0.00,,,0.00,meteohub,2013-01-05 05:07:00,
2013-01-04 21:12:00,40.3,4.5,-100.00,East,91,0.0,2.0,22,0.00,,,0.00,meteohub,2013-01-05 05:12:00,
2013-01-04 21:17:00,40.3,4.5,-100.00,East,91,1.0,2.0,22,0.00,,,0.00,meteohub,2013-01-05 05:17:00,
2013-01-04 21:22:00,40.3,4.5,-100.00,East,91,1.0,2.0,22,0.00,,,0.00,meteohub,2013-01-05 05:22:00,
2013-01-04 21:27:00,40.1,5.2,-100.00,East,91,1.0,2.0,23,0.00,,,0.00,meteohub,2013-01-05 05:27:00,
2013-01-04 21:32:00,40.3,4.5,-100.00,ESE,107,2.0,5.0,22,0.00,,,0.00,meteohub,2013-01-05 05:32:00,
2013-01-04 21:37:00,40.3,4.5,-100.00,ESE,114,2.0,5.0,22,0.00,,,0.00,meteohub,2013-01-05 05:37:00,
2013-01-04 21:42:00,40.3,4.5,-100.00,ESE,116,0.0,5.0,22,0.00,,,0.00,meteohub,2013-01-05 05:42:00,
2013-01-04 21:47:00,40.3,3.4,-100.00,ESE,116,1.0,5.0,21,0.00,,,0.00,meteohub,2013-01-05 05:47:00,
2013-01-04 21:52:00,39.4,2.7,-100.00,ESE,116,3.0,3.0,21,0.00,,,0.00,meteohub,2013-01-05 05:52:00,
2013-01-04 21:57:00,38.7,3.0,-100.00,ESE,116,3.0,3.0,22,0.00,,,0.00,meteohub,2013-01-05 05:57:00,
2013-01-04 22:02:00,38.7,2.1,-100.00,ESE,116,2.0,4.0,21,0.00,,,0.00,meteohub,2013-01-05 06:02:00,
2013-01-04 22:07:00,38.7,2.1,-100.00,ESE,116,0.0,4.0,21,0.00,,,0.00,meteohub,2013-01-05 06:07:00,
2013-01-04 22:12:00,38.5,2.8,-100.00,ESE,116,0.0,4.0,22,0.00,,,0.00,meteohub,2013-01-05 06:12:00,
2013-01-04 22:17:00,38.5,3.9,-100.00,ESE,116,1.0,3.0,23,0.00,,,0.00,meteohub,2013-01-05 06:17:00,
2013-01-04 22:22:00,38.1,3.6,-100.00,ESE,116,0.0,2.0,23,0.00,,,0.00,meteohub,2013-01-05 06:22:00,
2013-01-04 22:27:00,38.1,4.5,-100.00,ESE,116,0.0,2.0,24,0.00,,,0.00,meteohub,2013-01-05 06:27:00,
2013-01-04 22:32:00,37.9,5.2,-100.00,ESE,116,1.0,2.0,25,0.00,,,0.00,meteohub,2013-01-05 06:32:00,
2013-01-04 22:37:00,37.8,4.3,-100.00,ESE,116,0.0,2.0,24,0.00,,,0.00,meteohub,2013-01-05 06:37:00,
2013-01-04 22:42:00,37.8,4.3,-100.00,ESE,116,0.0,2.0,24,0.00,,,0.00,meteohub,2013-01-05 06:42:00,
2013-01-04 22:47:00,37.8,4.3,-100.00,ESE,116,0.0,2.0,24,0.00,,,0.00,meteohub,2013-01-05 06:47:00,
2013-01-04 22:52:00,37.8,3.2,-100.00,ESE,116,0.0,1.0,23,0.00,,,0.00,meteohub,2013-01-05 06:52:00,
2013-01-04 22:57:00,37.8,4.3,-100.00,ESE,116,0.0,0.0,24,0.00,,,0.00,meteohub,2013-01-05 06:57:00,
2013-01-04 23:02:00,37.6,4.1,-100.00,ESE,116,0.0,0.0,24,0.00,,,0.00,meteohub,2013-01-05 07:02:00,
2013-01-04 23:07:00,36.7,3.2,-100.00,ESE,116,0.0,0.0,24,0.00,,,0.00,meteohub,2013-01-05 07:07:00,
2013-01-04 23:12:00,36.0,2.7,-100.00,ESE,116,2.0,2.0,24,0.00,,,0.00,meteohub,2013-01-05 07:12:00,
2013-01-04 23:17:00,35.4,2.1,-100.00,ESE,116,3.0,3.0,24,0.00,,,0.00,meteohub,2013-01-05 07:17:00,
2013-01-04 23:22:00,34.3,1.2,-100.00,ESE,116,5.0,5.0,24,0.00,,,0.00,meteohub,2013-01-05 07:22:00,
2013-01-04 23:27:00,34.2,1.0,-100.00,ESE,116,3.0,7.0,24,0.00,,,0.00,meteohub,2013-01-05 07:27:00,
2013-01-04 23:32:00,34.2,1.0,-100.00,SSW,199,4.0,7.0,24,0.00,,,0.00,meteohub,2013-01-05 07:32:00,
2013-01-04 23:37:00,34.0,0.1,-100.00,SSW,203,2.0,7.0,23,0.00,,,0.00,meteohub,2013-01-05 07:37:00,
2013-01-04 23:42:00,34.0,0.1,-100.00,SSW,203,0.0,5.0,23,0.00,,,0.00,meteohub,2013-01-05 07:42:00,
2013-01-04 23:47:00,34.2,0.1,-100.00,SSW,203,1.0,5.0,23,0.00,,,0.00,meteohub,2013-01-05 07:47:00,
2013-01-04 23:52:00,34.2,1.9,-100.00,SSW,203,3.0,4.0,25,0.00,,,0.00,meteohub,2013-01-05 07:52:00,
2013-01-04 23:57:00,34.3,2.1,-100.00,SSW,203,3.0,3.0,25,0.00,,,0.00,meteohub,2013-01-05 07:57:00,